createdAt,value
2019-02-10T00:00:45.075Z,95294.89
2019-02-10T00:03:13.720Z,95295.67
2019-02-10T00:05:42.644Z,95291.63
2019-02-10T00:08:11.287Z,95291.42
2019-02-10T00:10:39.777Z,95288.53
2019-02-10T00:13:26.838Z,95293.55
2019-02-10T00:15:56.674Z,95291.22
2019-02-10T00:18:25.253Z,95291.63
2019-02-10T00:20:54.107Z,95294.12
2019-02-10T00:23:22.747Z,95307.20
2019-02-10T00:25:51.258Z,95295.63
2019-02-10T00:28:19.797Z,95299.67
2019-02-10T00:30:48.429Z,95297.89
2019-02-10T00:33:17.080Z,95298.87
2019-02-10T00:35:45.777Z,95301.36
2019-02-10T00:38:14.282Z,95301.92
2019-02-10T00:40:42.931Z,95302.34
2019-02-10T00:43:11.612Z,95301.58
2019-02-10T00:45:40.190Z,95295.20
2019-02-10T00:48:08.700Z,95301.78
2019-02-10T00:50:37.385Z,95296.38
2019-02-10T00:53:06.028Z,95282.13
2019-02-10T00:55:34.692Z,95288.31
2019-02-10T00:58:03.385Z,95285.05
2019-02-10T01:00:32.022Z,95293.50
2019-02-10T01:03:00.719Z,95291.36
2019-02-10T01:05:29.265Z,95279.98
2019-02-10T01:07:57.918Z,95285.73
2019-02-10T01:10:27.329Z,95285.73
2019-02-10T01:12:56.005Z,95296.11
2019-02-10T01:15:24.642Z,95280.38
2019-02-10T01:17:53.211Z,95280.38
2019-02-10T01:20:21.949Z,95281.71
2019-02-10T01:22:50.588Z,95287.10
2019-02-10T01:25:19.212Z,95278.23
2019-02-10T01:27:47.890Z,95267.81
2019-02-10T01:30:16.541Z,95273.39
2019-02-10T01:32:45.184Z,95277.42
2019-02-10T01:35:13.962Z,95277.42
2019-02-10T01:37:42.603Z,95275.66
2019-02-10T01:40:11.839Z,95270.69
2019-02-10T01:42:40.638Z,95271.06
2019-02-10T01:45:11.559Z,95272.39
2019-02-10T01:47:40.308Z,95267.42
2019-02-10T01:50:11.048Z,95266.87
2019-02-10T01:52:39.615Z,95268.98
2019-02-10T01:55:13.127Z,95261.48
2019-02-10T01:57:42.207Z,95271.51
2019-02-10T02:00:18.278Z,95268.64
2019-02-10T02:02:46.877Z,95272.86
2019-02-10T02:05:15.841Z,95278.64
2019-02-10T02:07:44.467Z,95284.99
2019-02-10T02:10:14.880Z,95278.81
2019-02-10T02:12:43.445Z,95277.09
2019-02-10T02:15:16.201Z,95283.23
2019-02-10T02:17:44.977Z,95285.14
2019-02-10T02:20:14.317Z,95271.27
2019-02-10T02:22:42.966Z,95265.11
2019-02-10T02:27:46.844Z,95278.34
2019-02-10T02:30:16.129Z,95269.89
2019-02-10T02:32:44.768Z,95252.61
2019-02-10T02:35:13.508Z,95251.06
2019-02-10T02:37:42.229Z,95257.42
2019-02-10T02:40:11.761Z,95263.59
2019-02-10T02:42:40.593Z,95248.95
2019-02-10T02:45:13.602Z,95251.85
2019-02-10T02:47:42.178Z,95246.88
2019-02-10T02:50:11.852Z,95247.83
2019-02-10T02:52:40.614Z,95244.55
2019-02-10T02:55:10.240Z,95244.55
2019-02-10T02:57:38.885Z,95263.44
2019-02-10T03:00:09.385Z,95268.27
2019-02-10T03:02:37.887Z,95266.70
2019-02-10T03:05:08.940Z,95255.33
2019-02-10T03:07:37.607Z,95278.83
2019-02-10T03:10:08.047Z,95266.33
2019-02-10T03:12:36.789Z,95265.32
2019-02-10T03:15:07.975Z,95270.27
2019-02-10T03:17:36.622Z,95266.43
2019-02-10T03:20:07.276Z,95266.43
2019-02-10T03:22:35.857Z,95269.48
2019-02-10T03:25:05.510Z,95268.74
2019-02-10T03:27:34.143Z,95262.76
2019-02-10T03:30:02.680Z,95261.97
2019-02-10T03:32:31.241Z,95257.55
2019-02-10T03:34:59.877Z,95258.33
2019-02-10T03:37:28.546Z,95255.64
2019-02-10T03:39:57.068Z,95244.30
2019-02-10T03:42:25.806Z,95255.85
2019-02-10T03:44:54.484Z,95252.95
2019-02-10T03:47:23.149Z,95252.95
2019-02-10T03:49:51.620Z,95257.77
2019-02-10T03:52:20.493Z,95261.96
2019-02-10T03:54:49.126Z,95261.96
2019-02-10T03:57:17.763Z,95278.91
2019-02-10T03:59:46.428Z,95273.73
2019-02-10T04:02:14.915Z,95288.52
2019-02-10T04:04:43.544Z,95288.52
2019-02-10T04:07:12.417Z,95289.10
2019-02-10T04:09:40.958Z,95277.52
2019-02-10T04:12:09.446Z,95274.64
2019-02-10T04:14:38.134Z,95271.59
2019-02-10T04:17:06.693Z,95271.59
2019-02-10T04:19:35.333Z,95275.82
2019-02-10T04:22:04.211Z,95271.38
2019-02-10T04:24:32.715Z,95268.74
2019-02-10T04:27:01.222Z,95270.88
2019-02-10T04:29:29.900Z,95270.88
2019-02-10T04:31:58.541Z,95248.70
2019-02-10T04:34:27.103Z,95248.70
2019-02-10T04:36:55.700Z,95263.31
2019-02-10T04:39:24.431Z,95272.00
2019-02-10T04:41:53.060Z,95272.17
2019-02-10T04:44:21.611Z,95277.41
2019-02-10T04:46:50.113Z,95280.46
2019-02-10T04:49:18.747Z,95261.58
2019-02-10T04:51:47.433Z,95284.06
2019-02-10T04:54:15.920Z,95284.06
2019-02-10T04:56:44.567Z,95274.63
2019-02-10T04:59:13.269Z,95274.63
2019-02-10T05:01:41.763Z,95271.55
2019-02-10T05:04:10.395Z,95280.76
2019-02-10T05:06:39.087Z,95282.89
2019-02-10T05:09:07.577Z,95282.89
2019-02-10T05:11:36.100Z,95291.86
2019-02-10T05:14:04.764Z,95292.66
2019-02-10T05:16:33.418Z,95305.96
2019-02-10T05:19:01.910Z,95307.85
2019-02-10T05:21:30.454Z,95306.86
2019-02-10T05:24:03.464Z,95306.86
2019-02-10T05:26:29.470Z,95305.42
2019-02-10T05:28:58.003Z,95295.64
2019-02-10T05:31:26.519Z,95305.47
2019-02-10T05:33:55.179Z,95309.72
2019-02-10T05:36:26.604Z,95319.48
2019-02-10T05:38:55.246Z,95310.80
2019-02-10T05:41:23.894Z,95302.19
2019-02-10T05:43:52.495Z,95313.89
2019-02-10T05:46:20.993Z,95305.44
2019-02-10T05:48:49.707Z,95305.55
2019-02-10T05:51:18.389Z,95312.20
2019-02-10T05:53:46.917Z,95313.06
2019-02-10T05:56:15.407Z,95312.98
2019-02-10T05:58:44.107Z,95306.83
2019-02-10T06:01:49.326Z,95307.78
2019-02-10T06:04:17.989Z,95309.95
2019-02-10T06:06:46.485Z,95322.00
2019-02-10T06:09:15.128Z,95316.73
2019-02-10T06:11:43.791Z,95334.91
2019-02-10T06:14:12.278Z,95331.42
2019-02-10T06:16:40.773Z,95342.90
2019-02-10T06:19:09.437Z,95335.98
2019-02-10T06:21:38.080Z,95337.61
2019-02-10T06:24:06.570Z,95338.65
2019-02-10T06:26:35.107Z,95348.11
2019-02-10T06:29:03.786Z,95346.08
2019-02-10T06:31:32.414Z,95341.82
2019-02-10T06:34:00.940Z,95342.66
2019-02-10T06:36:29.435Z,95337.84
2019-02-10T06:38:58.092Z,95333.88
2019-02-10T06:41:26.750Z,95331.34
2019-02-10T06:43:55.238Z,95332.75
2019-02-10T06:46:23.737Z,95338.86
2019-02-10T06:48:52.393Z,95338.83
2019-02-10T06:51:21.024Z,95335.53
2019-02-10T06:53:49.512Z,95337.63
2019-02-10T06:56:18.178Z,95333.59
2019-02-10T06:58:48.257Z,95336.41
2019-02-10T07:01:33.567Z,95344.84
2019-02-10T07:04:05.394Z,95347.12
2019-02-10T07:06:34.026Z,95351.61
2019-02-10T07:09:02.860Z,95346.96
2019-02-10T07:11:31.357Z,95352.78
2019-02-10T07:13:59.981Z,95351.40
2019-02-10T07:16:37.595Z,95350.34
2019-02-10T07:19:42.585Z,95346.45
2019-02-10T07:22:43.164Z,95349.94
2019-02-10T07:25:17.688Z,95339.98
2019-02-10T07:28:04.521Z,95346.56
2019-02-10T07:30:41.990Z,95338.96
2019-02-10T07:33:16.940Z,95346.66
2019-02-10T07:36:20.324Z,95345.55
2019-02-10T07:38:51.919Z,95343.67
2019-02-10T07:41:25.975Z,95341.02
2019-02-10T07:44:12.805Z,95342.14
2019-02-10T07:46:56.105Z,95341.13
2019-02-10T07:49:47.254Z,95340.31
2019-02-10T07:52:36.934Z,95341.86
2019-02-10T07:55:43.573Z,95343.64
2019-02-10T07:58:30.111Z,95335.41
2019-02-10T08:01:17.859Z,95341.17
2019-02-10T08:03:54.970Z,95339.08
2019-02-10T08:06:26.514Z,95338.05
2019-02-10T08:09:00.908Z,95344.14
2019-02-10T08:11:32.438Z,95336.43
2019-02-10T08:14:19.051Z,95338.06
2019-02-10T08:17:08.372Z,95339.16
2019-02-10T08:20:05.765Z,95337.03
2019-02-10T08:22:53.784Z,95338.50
2019-02-10T08:25:41.853Z,95339.14
2019-02-10T08:28:17.150Z,95332.75
2019-02-10T08:30:54.905Z,95334.92
2019-02-10T08:33:32.450Z,95333.14
2019-02-10T08:36:31.127Z,95329.78
2019-02-10T08:39:28.168Z,95331.67
2019-02-10T08:42:08.948Z,95325.86
2019-02-10T08:45:07.553Z,95325.62
2019-02-10T08:47:50.546Z,95325.06
2019-02-10T08:50:46.062Z,95323.68
2019-02-10T08:53:20.848Z,95314.20
2019-02-10T08:55:49.467Z,95331.44
2019-02-10T08:58:17.953Z,95327.89
2019-02-10T09:00:46.561Z,95329.00
2019-02-10T09:03:19.611Z,95318.80
2019-02-10T09:05:45.419Z,95321.16
2019-02-10T09:08:14.085Z,95314.15
2019-02-10T09:10:42.710Z,95314.86
2019-02-10T09:13:11.195Z,95315.81
2019-02-10T09:15:39.722Z,95315.73
2019-02-10T09:18:08.345Z,95311.71
2019-02-10T09:20:36.841Z,95304.14
2019-02-10T09:23:05.498Z,95313.89
2019-02-10T09:25:34.121Z,95313.03
2019-02-10T09:28:02.606Z,95308.41
2019-02-10T09:30:31.213Z,95306.87
2019-02-10T09:32:59.829Z,95302.23
2019-02-10T09:35:28.456Z,95307.94
2019-02-10T09:37:56.978Z,95304.34
2019-02-10T09:40:25.502Z,95310.34
2019-02-10T09:42:54.226Z,95306.86
2019-02-10T09:45:22.946Z,95301.38
2019-02-10T09:47:51.563Z,95297.95
2019-02-10T09:50:20.689Z,95297.52
2019-02-10T09:52:49.222Z,95295.47
2019-02-10T09:55:17.717Z,95295.92
2019-02-10T09:57:46.343Z,95288.84
2019-02-10T10:00:15.603Z,95292.14
2019-02-10T10:02:44.219Z,95282.52
2019-02-10T10:05:13.940Z,95284.06
2019-02-10T10:07:48.331Z,95279.51
2019-02-10T10:10:16.952Z,95267.63
2019-02-10T10:12:45.445Z,95265.80
2019-02-10T10:15:16.112Z,95263.53
2019-02-10T10:17:44.842Z,95253.49
2019-02-10T10:20:16.317Z,95248.01
2019-02-10T10:22:45.634Z,95243.86
2019-02-10T10:25:14.365Z,95231.42
2019-02-10T10:27:42.855Z,95238.59
2019-02-10T10:30:14.144Z,95239.72
2019-02-10T10:32:42.840Z,95229.44
2019-02-10T10:35:11.463Z,95221.17
2019-02-10T10:37:40.049Z,95214.89
2019-02-10T10:40:30.019Z,95211.98
2019-02-10T10:42:58.704Z,95218.62
2019-02-10T10:45:27.336Z,95214.84
2019-02-10T10:47:55.818Z,95208.05
2019-02-10T10:50:24.413Z,95209.89
2019-02-10T10:52:53.025Z,95213.13
2019-02-10T10:55:21.641Z,95199.27
2019-02-10T10:57:50.236Z,95192.59
2019-02-10T11:00:18.919Z,95192.63
2019-02-10T11:02:47.548Z,95188.08
2019-02-10T11:05:16.498Z,95180.08
2019-02-10T11:07:45.150Z,95174.89
2019-02-10T11:10:14.154Z,95180.67
2019-02-10T11:15:18.282Z,95181.00
2019-02-10T11:17:46.900Z,95177.02
2019-02-10T11:20:15.530Z,95173.21
2019-02-10T11:22:44.056Z,95170.77
2019-02-10T11:25:12.910Z,95155.07
2019-02-10T11:27:41.530Z,95173.05
2019-02-10T11:30:13.249Z,95165.73
2019-02-10T11:32:41.809Z,95160.56
2019-02-10T11:35:10.429Z,95158.56
2019-02-10T11:37:39.105Z,95159.77
2019-02-10T11:40:10.247Z,95155.81
2019-02-10T11:42:38.865Z,95151.25
2019-02-10T11:45:13.053Z,95147.44
2019-02-10T11:47:41.673Z,95141.61
2019-02-10T11:50:12.355Z,95133.97
2019-02-10T11:52:41.021Z,95128.03
2019-02-10T11:55:10.636Z,95124.79
2019-02-10T11:57:39.256Z,95122.97
2019-02-10T12:00:16.928Z,95123.27
2019-02-10T12:02:45.560Z,95123.53
2019-02-10T12:05:14.226Z,95120.00
2019-02-10T12:07:42.871Z,95119.58
2019-02-10T12:10:14.666Z,95116.24
2019-02-10T12:12:43.149Z,95115.91
2019-02-10T12:15:13.951Z,95110.56
2019-02-10T12:17:42.566Z,95109.02
2019-02-10T12:20:14.901Z,95107.31
2019-02-10T12:22:49.949Z,95103.33
2019-02-10T12:25:13.928Z,95098.34
2019-02-10T12:27:42.529Z,95089.15
2019-02-10T12:30:15.981Z,95089.52
2019-02-10T12:32:44.597Z,95084.91
2019-02-10T12:35:13.320Z,95076.08
2019-02-10T12:37:41.906Z,95066.46
2019-02-10T12:40:11.833Z,95073.45
2019-02-10T12:42:40.452Z,95069.61
2019-02-10T12:45:11.112Z,95067.97
2019-02-10T12:47:39.747Z,95062.81
2019-02-10T12:50:11.312Z,95063.99
2019-02-10T12:52:39.968Z,95051.03
2019-02-10T12:55:09.898Z,95053.43
2019-02-10T12:57:38.510Z,95054.42
2019-02-10T13:00:10.231Z,95051.24
2019-02-10T13:02:38.720Z,95048.75
2019-02-10T13:05:07.646Z,95044.34
2019-02-10T13:07:36.175Z,95033.98
2019-02-10T13:10:08.390Z,95041.39
2019-02-10T13:12:37.156Z,95030.09
2019-02-10T13:15:07.416Z,95042.27
2019-02-10T13:17:35.914Z,95038.67
2019-02-10T13:20:06.579Z,95035.94
2019-02-10T13:22:35.243Z,95030.27
2019-02-10T13:25:04.685Z,95031.59
2019-02-10T13:27:33.255Z,95028.88
2019-02-10T13:30:01.803Z,95029.98
2019-02-10T13:32:36.350Z,95034.09
2019-02-10T13:35:05.282Z,95027.70
2019-02-10T13:37:33.820Z,95025.45
2019-02-10T13:40:02.299Z,95021.25
2019-02-10T13:42:30.916Z,95022.67
2019-02-10T13:44:59.511Z,95023.84
2019-02-10T13:47:28.065Z,95013.17
2019-02-10T13:49:56.697Z,95016.23
2019-02-10T13:52:25.522Z,95013.60
2019-02-10T13:54:54.007Z,95014.84
2019-02-10T13:57:22.619Z,95010.22
2019-02-10T13:59:51.293Z,95007.76
2019-02-10T14:02:19.772Z,95001.70
2019-02-10T14:04:48.272Z,95004.05
2019-02-10T14:07:16.925Z,94999.27
2019-02-10T14:09:45.545Z,94998.89
2019-02-10T14:12:14.131Z,95000.30
2019-02-10T14:14:42.686Z,94994.99
2019-02-10T14:17:11.299Z,94991.97
2019-02-10T14:19:39.925Z,94991.35
2019-02-10T14:22:08.629Z,94989.22
2019-02-10T14:24:37.259Z,94977.26
2019-02-10T14:27:05.732Z,94976.69
2019-02-10T14:29:34.373Z,94979.34
2019-02-10T14:32:03.008Z,94979.50
2019-02-10T14:34:31.628Z,94973.61
2019-02-10T14:37:00.157Z,94976.73
2019-02-10T14:39:28.645Z,94967.93
2019-02-10T14:41:57.278Z,94967.29
2019-02-10T14:44:25.932Z,94972.79
2019-02-10T14:46:54.483Z,94976.45
2019-02-10T14:49:23.552Z,94970.65
2019-02-10T14:51:52.223Z,94972.36
2019-02-10T14:54:26.818Z,94972.45
2019-02-10T14:56:55.302Z,94970.73
2019-02-10T14:59:23.839Z,94963.31
2019-02-10T15:01:52.467Z,94964.62
2019-02-10T15:04:20.948Z,94957.92
2019-02-10T15:06:49.628Z,94965.25
2019-02-10T15:09:18.320Z,94959.20
2019-02-10T15:11:46.844Z,94964.23
2019-02-10T15:14:15.369Z,94963.23
2019-02-10T15:16:43.989Z,94957.31
2019-02-10T15:19:12.607Z,94949.31
2019-02-10T15:21:42.411Z,94959.00
2019-02-10T15:24:11.102Z,94964.69
2019-02-10T15:26:39.729Z,94957.72
2019-02-10T15:29:08.410Z,94958.68
2019-02-10T15:31:36.919Z,94965.55
2019-02-10T15:34:05.455Z,94954.91
2019-02-10T15:36:34.393Z,94954.48
2019-02-10T15:39:03.117Z,94953.31
2019-02-10T15:41:31.632Z,94950.83
2019-02-10T15:44:00.553Z,94947.20
2019-02-10T15:46:29.116Z,94943.26
2019-02-10T15:48:57.617Z,94942.52
2019-02-10T15:51:35.551Z,94942.39
2019-02-10T15:53:56.858Z,94946.66
2019-02-10T15:56:25.368Z,94956.98
2019-02-10T15:58:53.899Z,94958.96
2019-02-10T16:01:22.646Z,94961.22
2019-02-10T16:03:51.312Z,94956.81
2019-02-10T16:06:19.840Z,94948.56
2019-02-10T16:08:48.348Z,94948.26
2019-02-10T16:11:17.053Z,94949.31
2019-02-10T16:13:45.906Z,94947.91
2019-02-10T16:16:20.390Z,94943.33
2019-02-10T16:18:48.961Z,94946.52
2019-02-10T16:21:17.627Z,94954.09
2019-02-10T16:23:46.117Z,94946.94
2019-02-10T16:26:14.758Z,94944.17
2019-02-10T16:28:43.463Z,94951.59
2019-02-10T16:31:11.961Z,94945.03
2019-02-10T16:33:40.566Z,94942.73
2019-02-10T16:36:09.228Z,94943.75
2019-02-10T16:38:37.815Z,94940.11
2019-02-10T16:41:06.844Z,94942.08
2019-02-10T16:43:35.516Z,94943.26
2019-02-10T16:46:04.142Z,94936.39
2019-02-10T16:48:32.787Z,94942.95
2019-02-10T16:51:01.391Z,94946.09
2019-02-10T16:53:33.045Z,94945.77
2019-02-10T16:56:01.665Z,94940.41
2019-02-10T16:58:30.332Z,94943.70
2019-02-10T17:00:58.830Z,94933.94
2019-02-10T17:03:27.312Z,94928.91
2019-02-10T17:05:55.983Z,94925.84
2019-02-10T17:08:24.722Z,94921.48
2019-02-10T17:10:53.221Z,94929.57
2019-02-10T17:13:22.015Z,94924.20
2019-02-10T17:15:50.644Z,94923.70
2019-02-10T17:18:19.265Z,94924.47
2019-02-10T17:20:47.810Z,94926.91
2019-02-10T17:23:16.293Z,94924.64
2019-02-10T17:25:44.922Z,94916.24
2019-02-10T17:28:13.588Z,94922.77
2019-02-10T17:30:42.168Z,94921.62
2019-02-10T17:33:10.661Z,94902.09
2019-02-10T17:35:39.334Z,94915.73
2019-02-10T17:38:07.972Z,94910.73
2019-02-10T17:40:39.370Z,94915.35
2019-02-10T17:43:08.047Z,94910.88
2019-02-10T17:45:36.540Z,94910.50
2019-02-10T17:48:05.267Z,94904.05
2019-02-10T17:50:33.950Z,94907.20
2019-02-10T17:53:02.568Z,94908.31
2019-02-10T17:55:31.062Z,94904.44
2019-02-10T17:57:59.592Z,94901.32
2019-02-10T18:00:29.863Z,94896.11
2019-02-10T18:02:58.498Z,94897.84
2019-02-10T18:05:27.174Z,94899.72
2019-02-10T18:07:55.669Z,94890.45
2019-02-10T18:10:24.306Z,94894.39
2019-02-10T18:12:52.973Z,94901.69
2019-02-10T18:15:32.027Z,94899.00
2019-02-10T18:18:18.132Z,94904.48
2019-02-10T18:21:07.476Z,94899.02
2019-02-10T18:23:43.820Z,94907.49
2019-02-10T18:26:30.255Z,94899.85
2019-02-10T18:29:16.745Z,94909.03
2019-02-10T18:31:49.509Z,94900.16
2019-02-10T18:34:19.630Z,94886.98
2019-02-10T18:37:01.768Z,94891.59
2019-02-10T18:39:38.197Z,94892.44
2019-02-10T18:42:08.364Z,94895.17
2019-02-10T18:44:41.272Z,94902.70
2019-02-10T18:47:26.868Z,94889.30
2019-02-10T18:50:00.234Z,94872.53
2019-02-10T18:52:30.382Z,94874.77
2019-02-10T18:55:00.553Z,94866.17
2019-02-10T18:57:47.275Z,94868.47
2019-02-10T19:00:29.580Z,94885.09
2019-02-10T19:02:59.704Z,94886.74
2019-02-10T19:05:32.703Z,94876.36
2019-02-10T19:08:02.957Z,94892.44
2019-02-10T19:10:36.064Z,94899.27
2019-02-10T19:13:06.331Z,94891.31
2019-02-10T19:15:36.698Z,94882.77
2019-02-10T19:18:16.203Z,94888.70
2019-02-10T19:20:51.849Z,94903.38
2019-02-10T19:23:34.040Z,94893.19
2019-02-10T19:26:04.360Z,94880.64
2019-02-10T19:28:40.275Z,94888.82
2019-02-10T19:31:26.789Z,94888.17
2019-02-10T19:33:59.725Z,94887.52
2019-02-10T19:36:30.032Z,94885.44
2019-02-10T19:39:16.422Z,94881.73
2019-02-10T19:42:03.175Z,94884.03
2019-02-10T19:44:49.704Z,94883.16
2019-02-10T19:47:22.586Z,94882.56
2019-02-10T19:50:09.575Z,94881.09
2019-02-10T19:52:51.765Z,94880.92
2019-02-10T19:55:27.796Z,94887.89
2019-02-10T19:58:03.722Z,94887.35
2019-02-10T20:00:42.971Z,94866.88
2019-02-10T20:03:19.020Z,94868.45
2019-02-10T20:05:52.177Z,94867.38
2019-02-10T20:08:25.157Z,94877.61
2019-02-10T20:11:01.368Z,94864.35
2019-02-10T20:13:37.811Z,94849.72
2019-02-10T20:16:08.112Z,94853.53
2019-02-10T20:18:38.310Z,94849.97
2019-02-10T20:21:08.590Z,94861.07
2019-02-10T20:23:41.722Z,94851.64
2019-02-10T20:26:17.611Z,94842.55
2019-02-10T20:28:56.736Z,94849.88
2019-02-10T20:31:26.871Z,94863.83
2019-02-10T20:34:02.614Z,94859.18
2019-02-10T20:36:35.897Z,94856.46
2019-02-10T20:39:09.826Z,94837.34
2019-02-10T20:41:40.018Z,94845.27
2019-02-10T20:44:18.684Z,94849.73
2019-02-10T20:47:41.884Z,94861.55
2019-02-10T20:50:21.518Z,94853.56
2019-02-10T20:53:03.658Z,94838.41
2019-02-10T20:55:36.552Z,94849.05
2019-02-10T20:58:23.569Z,94851.45
2019-02-10T21:00:56.868Z,94831.71
2019-02-10T21:03:32.541Z,94832.52
2019-02-10T21:06:02.701Z,94826.89
2019-02-10T21:08:35.838Z,94834.53
2019-02-10T21:11:12.009Z,94828.42
2019-02-10T21:14:00.852Z,94815.25
2019-02-10T21:16:47.331Z,94818.70
2019-02-10T21:19:32.245Z,94810.35
2019-02-10T21:22:11.849Z,94794.53
2019-02-10T21:27:57.128Z,94787.30
2019-02-10T21:30:42.324Z,94786.59
2019-02-10T21:33:15.757Z,94791.70
2019-02-10T21:35:46.033Z,94787.06
2019-02-10T21:38:25.306Z,94784.94
2019-02-10T21:40:55.431Z,94788.00
2019-02-10T21:43:37.211Z,94784.10
2019-02-10T21:46:13.287Z,94777.82
2019-02-10T21:48:43.813Z,94775.20
2019-02-10T21:51:12.369Z,94779.87
2019-02-10T21:53:40.991Z,94774.87
2019-02-10T21:56:09.657Z,94770.98
2019-02-10T21:58:38.159Z,94764.65
2019-02-10T22:01:06.800Z,94761.35
2019-02-10T22:03:35.474Z,94754.66
2019-02-10T22:06:04.031Z,94752.54
2019-02-10T22:08:32.599Z,94754.07
2019-02-10T22:11:01.256Z,94748.39
2019-02-10T22:13:29.882Z,94752.05
2019-02-10T22:15:58.384Z,94749.25
2019-02-10T22:18:26.925Z,94748.48
2019-02-10T22:20:55.570Z,94757.22
2019-02-10T22:23:24.223Z,94746.30
2019-02-10T22:25:52.966Z,94741.78
2019-02-10T22:28:21.454Z,94742.55
2019-02-10T22:30:50.091Z,94738.57
2019-02-10T22:33:18.769Z,94735.61
2019-02-10T22:35:47.351Z,94722.90
2019-02-10T22:38:15.841Z,94727.30
2019-02-10T22:40:44.499Z,94734.76
2019-02-10T22:43:13.134Z,94736.29
2019-02-10T22:45:41.637Z,94729.15
2019-02-10T22:48:10.422Z,94730.53
2019-02-10T22:50:39.054Z,94723.56
2019-02-10T22:53:07.677Z,94735.36
2019-02-10T22:55:36.239Z,94728.22
2019-02-10T22:58:04.731Z,94731.69
2019-02-10T23:00:43.962Z,94720.34
2019-02-10T23:03:12.776Z,94726.45
2019-02-10T23:05:41.429Z,94719.30
2019-02-10T23:08:09.959Z,94713.95
2019-02-10T23:10:38.577Z,94711.61
2019-02-10T23:13:07.129Z,94710.77
2019-02-10T23:15:36.003Z,94710.48
2019-02-10T23:18:04.634Z,94715.84
2019-02-10T23:20:33.138Z,94711.23
2019-02-10T23:23:02.699Z,94710.31
2019-02-10T23:25:31.334Z,94709.66
2019-02-10T23:27:59.957Z,94709.23
2019-02-10T23:30:28.813Z,94712.30
2019-02-10T23:32:57.298Z,94696.09
2019-02-10T23:35:28.666Z,94684.55
2019-02-10T23:37:57.542Z,94691.23
2019-02-10T23:40:26.033Z,94687.25
2019-02-10T23:43:01.893Z,94685.72
2019-02-10T23:45:24.920Z,94682.43
2019-02-10T23:47:53.556Z,94692.43
2019-02-10T23:50:22.054Z,94687.94
2019-02-10T23:52:50.736Z,94694.63
2019-02-10T23:55:19.224Z,94693.52
2019-02-10T23:57:47.726Z,94705.80
